Time;durP1;ratioP1;P1;durP2;ratioP2;P2;SDS_P1;SDS_P2;PMS_P1;PMS_P2;Temp;Humidity;BMP_temperature;BMP_pressure;BME280_temperature;BME280_humidity;BME280_pressure;Samples;Min_cycle;Max_cycle;Signal;HPM_P1;HPM_P2
2021/08/16 00:02:08;;;;;;;11.95;4.93;;;;;;;15.50;54.20;100655.16;5039709;28;20036;-70
2021/08/16 00:04:33;;;;;;;11.73;5.15;;;;;;;15.77;54.08;100654.31;5047246;28;20415;-69
2021/08/16 00:07:00;;;;;;;9.18;4.90;;;;;;;15.88;53.94;100649.16;5057802;28;20047;-70
2021/08/16 00:09:25;;;;;;;10.70;4.63;;;;;;;15.98;53.89;100650.25;5044109;28;20029;-69
2021/08/16 00:11:51;;;;;;;13.13;3.53;;;;;;;16.04;53.81;100635.00;5043551;28;20037;-70
2021/08/16 00:14:16;;;;;;;16.38;5.57;;;;;;;15.67;54.75;100630.34;5050506;28;20615;-68
2021/08/16 00:16:42;;;;;;;14.80;5.03;;;;;;;15.86;54.61;100629.97;5042671;28;20067;-70
2021/08/16 00:19:08;;;;;;;18.27;4.88;;;;;;;15.98;54.22;100618.63;5039171;28;20040;-70
2021/08/16 00:21:33;;;;;;;9.82;4.43;;;;;;;16.04;54.07;100613.91;5056312;28;20032;-70
2021/08/16 00:23:59;;;;;;;13.25;4.95;;;;;;;16.05;53.93;100610.34;5049143;28;20047;-69
2021/08/16 00:26:25;;;;;;;11.55;4.80;;;;;;;16.08;54.06;100605.69;5040616;28;20063;-70
2021/08/16 00:28:50;;;;;;;12.25;5.03;;;;;;;16.11;54.17;100600.25;5040605;28;20040;-69
2021/08/16 00:31:16;;;;;;;9.80;5.40;;;;;;;16.13;54.18;100597.47;5042013;28;20056;-71
2021/08/16 00:33:41;;;;;;;12.38;5.40;;;;;;;16.30;54.00;100597.19;5036913;28;20102;-71
2021/08/16 00:36:07;;;;;;;10.20;5.13;;;;;;;16.35;53.64;100602.13;5039546;28;20048;-70
2021/08/16 00:38:33;;;;;;;10.63;5.03;;;;;;;16.38;53.96;100588.75;5059213;28;20107;-71
2021/08/16 00:40:58;;;;;;;9.48;4.70;;;;;;;16.39;53.83;100593.91;5038164;28;20120;-71
2021/08/16 00:43:23;;;;;;;12.30;5.22;;;;;;;16.45;53.65;100586.53;5042592;28;20028;-70
2021/08/16 00:45:49;;;;;;;8.77;4.28;;;;;;;16.48;53.71;100587.16;5050779;28;20465;-69
2021/08/16 00:48:15;;;;;;;8.27;4.78;;;;;;;16.47;53.50;100582.00;5044131;28;20303;-72
2021/08/16 00:50:41;;;;;;;18.75;6.00;;;;;;;16.40;53.53;100578.94;5042950;28;20424;-69
2021/08/16 00:53:07;;;;;;;10.07;5.65;;;;;;;16.34;53.93;100574.09;5041988;28;20118;-69
2021/08/16 00:55:33;;;;;;;15.07;5.68;;;;;;;16.18;54.08;100572.50;5047665;28;20025;-68
2021/08/16 00:58:00;;;;;;;15.60;6.38;;;;;;;16.05;54.30;100565.53;5040944;28;20187;-68
2021/08/16 01:00:27;;;;;;;11.05;5.70;;;;;;;15.92;54.86;100561.06;5049288;28;20127;-69
2021/08/16 01:02:52;;;;;;;12.93;5.40;;;;;;;15.89;54.97;100561.28;5042462;28;20032;-70
2021/08/16 01:05:18;;;;;;;11.02;5.45;;;;;;;15.92;55.04;100561.06;5037501;28;20033;-69
2021/08/16 01:07:46;;;;;;;7.90;4.15;;;;;;;15.96;55.12;100556.44;5039240;28;20057;-68
2021/08/16 01:10:16;;;;;;;11.40;6.25;;;;;;;15.80;55.57;100556.63;5052927;28;20024;-69
2021/08/16 01:12:42;;;;;;;13.20;6.13;;;;;;;15.97;54.93;100550.19;5042430;28;20040;-68
2021/08/16 01:15:11;;;;;;;10.00;5.43;;;;;;;15.88;55.01;100543.75;5039828;28;20041;-69
2021/08/16 01:17:38;;;;;;;10.10;6.38;;;;;;;15.88;55.08;100542.91;5042470;28;20028;-69
2021/08/16 01:20:11;;;;;;;14.52;6.40;;;;;;;15.55;56.34;100541.59;5053901;28;20390;-69
2021/08/16 01:22:37;;;;;;;15.02;6.70;;;;;;;15.82;55.79;100527.50;5057302;28;20033;-68
2021/08/16 01:25:05;;;;;;;12.98;6.07;;;;;;;15.58;55.87;100520.34;5063498;28;20521;-69
2021/08/16 01:27:30;;;;;;;14.25;6.53;;;;;;;15.73;55.78;100518.47;5040741;28;20562;-68
2021/08/16 01:29:57;;;;;;;12.45;6.70;;;;;;;15.64;55.71;100511.16;5056065;28;20393;-69
2021/08/16 01:32:23;;;;;;;14.15;6.90;;;;;;;15.39;56.59;100515.44;5039912;28;20089;-70
2021/08/16 01:34:48;;;;;;;18.35;6.32;;;;;;;15.12;57.69;100526.78;5039779;28;20032;-70
2021/08/16 01:37:13;;;;;;;13.63;6.97;;;;;;;15.41;57.09;100524.06;5038447;28;20037;-70
2021/08/16 01:39:39;;;;;;;14.13;6.82;;;;;;;14.85;58.91;100520.66;5041853;28;20039;-70
2021/08/16 01:42:05;;;;;;;12.82;7.22;;;;;;;15.22;57.92;100518.34;5043365;28;20060;-70
2021/08/16 01:44:30;;;;;;;15.45;7.03;;;;;;;15.59;56.74;100522.00;5040330;28;20463;-69
2021/08/16 01:46:56;;;;;;;14.25;6.90;;;;;;;15.59;56.95;100516.72;5035627;28;20083;-70
2021/08/16 01:49:22;;;;;;;13.10;6.55;;;;;;;15.71;56.58;100513.28;5039886;28;20025;-69
2021/08/16 01:51:48;;;;;;;14.00;6.88;;;;;;;15.62;56.75;100513.91;5038398;28;20060;-69
2021/08/16 01:54:15;;;;;;;15.70;8.02;;;;;;;15.30;58.02;100516.88;5040461;28;20037;-70
2021/08/16 01:56:41;;;;;;;16.33;8.82;;;;;;;15.37;57.63;100510.28;5042052;28;20062;-70
2021/08/16 01:59:07;;;;;;;18.33;8.02;;;;;;;15.60;57.23;100518.44;5040087;28;20041;-68
2021/08/16 02:01:32;;;;;;;15.38;8.57;;;;;;;15.70;56.98;100518.66;5041940;28;20489;-70
2021/08/16 02:03:58;;;;;;;14.82;8.57;;;;;;;15.75;56.96;100519.19;5042180;28;20036;-70
2021/08/16 02:06:23;;;;;;;16.75;9.32;;;;;;;15.61;57.20;100520.13;5038359;28;20040;-70
2021/08/16 02:08:49;;;;;;;19.05;8.85;;;;;;;15.59;57.30;100501.81;5045392;28;20032;-70
2021/08/16 02:11:15;;;;;;;20.58;8.85;;;;;;;15.08;58.80;100499.00;5040743;28;20570;-70
2021/08/16 02:13:41;;;;;;;20.00;9.75;;;;;;;15.00;58.88;100493.38;5041987;28;20031;-70
2021/08/16 02:16:06;;;;;;;18.92;7.82;;;;;;;15.30;58.43;100505.50;5039770;28;20482;-68
2021/08/16 02:18:32;;;;;;;21.58;9.48;;;;;;;15.51;57.84;100498.81;5037118;28;20029;-70
2021/08/16 02:20:57;;;;;;;17.40;9.05;;;;;;;15.22;58.96;100505.19;5041753;28;20041;-69
2021/08/16 02:23:23;;;;;;;18.45;8.98;;;;;;;14.96;59.03;100489.25;5040630;28;20142;-68
2021/08/16 02:25:49;;;;;;;18.70;9.30;;;;;;;14.82;59.85;100499.84;5038502;28;20040;-69
2021/08/16 02:28:16;;;;;;;17.83;8.73;;;;;;;14.92;59.63;100499.13;5048907;28;20365;-70
2021/08/16 02:30:43;;;;;;;19.25;8.43;;;;;;;15.06;59.14;100495.63;5044242;28;20032;-71
2021/08/16 02:33:09;;;;;;;17.45;8.48;;;;;;;15.23;58.42;100498.97;5035189;28;20033;-69
2021/08/16 02:35:34;;;;;;;23.25;10.30;;;;;;;14.81;59.59;100491.06;5044006;28;20049;-70
2021/08/16 02:38:00;;;;;;;17.00;8.40;;;;;;;14.85;59.43;100507.53;5040915;28;20064;-70
2021/08/16 02:40:25;;;;;;;13.90;8.25;;;;;;;14.99;59.00;100507.47;5056870;28;20414;-70
2021/08/16 02:42:51;;;;;;;15.07;8.48;;;;;;;15.01;58.98;100505.56;5040507;28;20112;-70
2021/08/16 02:45:16;;;;;;;16.05;6.60;;;;;;;14.80;59.54;100506.97;5040494;28;20037;-68
2021/08/16 02:47:43;;;;;;;14.82;6.85;;;;;;;14.66;59.98;100513.97;5063682;28;20267;-69
2021/08/16 02:50:09;;;;;;;13.93;6.40;;;;;;;15.03;58.64;100508.97;5045267;28;20040;-69
2021/08/16 02:52:35;;;;;;;17.83;6.07;;;;;;;15.44;57.44;100508.09;5038777;28;20036;-68
2021/08/16 02:55:01;;;;;;;17.33;7.07;;;;;;;14.93;58.60;100510.50;5048419;28;20033;-69
2021/08/16 02:57:27;;;;;;;12.52;6.78;;;;;;;14.89;59.03;100511.66;5036691;28;20033;-71
2021/08/16 02:59:52;;;;;;;11.85;6.10;;;;;;;15.25;58.31;100512.88;5034725;28;20110;-70
2021/08/16 03:02:18;;;;;;;13.52;5.72;;;;;;;15.48;57.46;100503.44;5039438;28;20040;-72
2021/08/16 03:04:43;;;;;;;8.77;5.80;;;;;;;15.48;57.31;100503.44;5053632;28;20482;-70
2021/08/16 03:07:09;;;;;;;8.90;5.75;;;;;;;15.15;58.36;100510.81;5055558;28;20461;-68
2021/08/16 03:09:35;;;;;;;16.98;5.65;;;;;;;15.14;58.25;100506.47;5052329;28;20038;-69
2021/08/16 03:12:00;;;;;;;11.07;5.28;;;;;;;15.12;58.20;100508.34;5062286;28;20039;-69
2021/08/16 03:14:26;;;;;;;9.90;5.15;;;;;;;15.39;57.54;100499.63;5047706;28;20150;-68
2021/08/16 03:16:52;;;;;;;13.32;4.38;;;;;;;15.51;57.21;100505.88;5043237;28;20494;-68
2021/08/16 03:19:18;;;;;;;6.70;4.75;;;;;;;15.32;57.53;100498.34;5041311;28;20444;-67
2021/08/16 03:21:43;;;;;;;14.85;6.10;;;;;;;14.94;59.04;100494.59;5042271;28;20546;-68
2021/08/16 03:24:10;;;;;;;12.63;4.47;;;;;;;15.44;57.83;100496.69;5042552;28;20175;-69
2021/08/16 03:26:36;;;;;;;9.10;5.35;;;;;;;15.42;57.75;100495.97;5047039;28;20037;-68
2021/08/16 03:29:02;;;;;;;11.85;4.25;;;;;;;15.12;58.75;100503.09;5041588;28;20043;-69
2021/08/16 03:31:27;;;;;;;14.60;5.20;;;;;;;15.10;58.48;100502.38;5043981;28;20033;-69
2021/08/16 03:33:53;;;;;;;12.07;5.03;;;;;;;15.33;57.97;100494.78;5047996;28;20035;-69
2021/08/16 03:36:19;;;;;;;13.63;4.93;;;;;;;15.25;58.07;100487.38;5035724;28;20071;-70
2021/08/16 03:38:44;;;;;;;8.32;4.28;;;;;;;14.90;59.43;100495.78;5043036;28;20040;-68
2021/08/16 03:41:10;;;;;;;13.00;4.25;;;;;;;14.79;59.77;100490.34;5058227;28;20033;-69
2021/08/16 03:43:35;;;;;;;13.20;4.30;;;;;;;15.26;58.25;100493.47;5044384;28;20429;-70
2021/08/16 03:46:01;;;;;;;9.77;4.00;;;;;;;15.01;59.00;100484.53;5042753;28;20121;-70
2021/08/16 03:48:26;;;;;;;9.85;3.70;;;;;;;15.08;58.47;100488.47;5044036;28;20041;-69
2021/08/16 03:50:52;;;;;;;9.75;4.72;;;;;;;15.17;58.54;100493.13;5056067;28;20056;-69
2021/08/16 03:53:17;;;;;;;8.75;4.15;;;;;;;15.35;58.01;100488.47;5042784;28;20044;-69
2021/08/16 03:55:43;;;;;;;10.45;4.15;;;;;;;15.44;57.53;100487.03;5063211;28;20509;-69
2021/08/16 03:58:09;;;;;;;8.27;3.88;;;;;;;15.36;57.87;100484.88;5042464;28;20344;-68
2021/08/16 04:00:34;;;;;;;9.65;4.18;;;;;;;15.36;57.93;100491.94;5043733;28;20024;-71
2021/08/16 04:03:00;;;;;;;11.45;3.95;;;;;;;15.62;57.03;100489.34;5043244;28;20028;-69
2021/08/16 04:05:26;;;;;;;10.32;3.85;;;;;;;15.39;57.72;100481.19;5061569;28;20505;-68
2021/08/16 04:07:52;;;;;;;8.20;4.10;;;;;;;15.56;57.18;100480.91;5037202;28;20040;-69
2021/08/16 04:10:18;;;;;;;13.35;4.65;;;;;;;15.44;57.44;100481.75;5038251;28;20038;-72
2021/08/16 04:12:44;;;;;;;8.35;3.42;;;;;;;14.90;58.41;100479.13;5042365;28;20093;-68
2021/08/16 04:15:15;;;;;;;13.23;4.28;;;;;;;15.37;57.79;100480.44;5039361;28;20086;-71
2021/08/16 04:17:41;;;;;;;6.95;4.15;;;;;;;15.36;57.55;100474.34;5041986;28;20040;-70
2021/08/16 04:20:08;;;;;;;11.77;4.10;;;;;;;15.19;58.32;100474.59;5039216;28;20036;-70
2021/08/16 04:22:35;;;;;;;9.85;4.43;;;;;;;15.54;57.42;100472.28;5048563;28;20025;-70
2021/08/16 04:25:00;;;;;;;9.45;4.40;;;;;;;15.14;58.44;100480.16;5056833;28;20033;-68
2021/08/16 04:27:26;;;;;;;10.20;3.65;;;;;;;15.50;57.50;100470.78;5045853;28;20390;-69
2021/08/16 04:29:52;;;;;;;6.13;3.47;;;;;;;15.52;57.67;100476.78;5056283;28;20459;-68
2021/08/16 04:32:18;;;;;;;11.95;4.03;;;;;;;15.27;57.83;100484.66;5043416;28;20594;-69
2021/08/16 04:34:44;;;;;;;10.57;3.58;;;;;;;15.62;56.98;100476.16;5041152;28;20116;-69
2021/08/16 04:37:09;;;;;;;13.10;3.90;;;;;;;15.06;58.78;100473.69;5038593;28;20452;-70
2021/08/16 04:39:35;;;;;;;13.13;4.70;;;;;;;15.25;58.01;100465.47;5064009;28;20591;-71
2021/08/16 04:42:00;;;;;;;10.15;4.00;;;;;;;15.24;58.00;100466.41;5056962;28;20040;-70
2021/08/16 04:44:25;;;;;;;14.60;3.83;;;;;;;15.36;57.49;100476.97;5039117;28;20040;-69
2021/08/16 04:46:51;;;;;;;9.00;4.03;;;;;;;14.65;59.54;100474.59;5062672;28;20033;-69
2021/08/16 04:49:17;;;;;;;8.90;3.65;;;;;;;15.16;58.16;100477.44;5055470;28;20413;-68
2021/08/16 04:51:42;;;;;;;4.15;2.50;;;;;;;14.65;58.05;100467.53;5055216;28;20033;-68
2021/08/16 04:54:08;;;;;;;6.82;2.03;;;;;;;14.89;57.16;100474.81;5051456;28;20402;-70
2021/08/16 04:56:33;;;;;;;4.80;1.48;;;;;;;14.68;56.70;100482.28;5057112;28;20213;-69
2021/08/16 04:59:00;;;;;;;5.60;1.45;;;;;;;14.52;57.30;100479.78;5042187;28;20048;-69
2021/08/16 05:01:26;;;;;;;5.47;1.48;;;;;;;14.52;57.57;100477.13;5041881;28;20098;-70
2021/08/16 05:03:52;;;;;;;6.20;1.70;;;;;;;14.45;57.65;100475.84;5043728;28;20485;-69
2021/08/16 05:06:17;;;;;;;7.70;1.88;;;;;;;14.22;57.91;100457.06;5041479;28;20509;-68
2021/08/16 05:08:43;;;;;;;3.72;1.10;;;;;;;14.12;57.57;100458.56;5061342;28;20037;-70
2021/08/16 05:11:09;;;;;;;5.05;1.38;;;;;;;14.08;57.41;100463.19;5041638;28;20070;-69
2021/08/16 05:13:34;;;;;;;5.30;1.55;;;;;;;14.22;57.31;100459.69;5041690;28;20092;-68
2021/08/16 05:16:01;;;;;;;7.03;1.40;;;;;;;14.65;56.01;100467.53;5054657;28;20034;-70
2021/08/16 05:18:27;;;;;;;7.43;1.20;;;;;;;14.53;56.53;100465.69;5063201;28;20510;-70
2021/08/16 05:20:54;;;;;;;4.20;1.48;;;;;;;14.75;56.09;100452.88;5040396;28;20521;-70
2021/08/16 05:23:20;;;;;;;5.63;1.85;;;;;;;14.71;56.24;100453.16;5036319;28;20025;-70
2021/08/16 05:25:45;;;;;;;7.00;1.40;;;;;;;14.91;55.87;100462.41;5061859;28;20543;-69
2021/08/16 05:28:11;;;;;;;7.85;1.27;;;;;;;15.04;55.56;100458.03;5043493;28;20060;-70
2021/08/16 05:30:37;;;;;;;7.22;1.88;;;;;;;14.84;56.38;100450.59;5054367;28;20146;-70
2021/08/16 05:33:03;;;;;;;5.18;1.63;;;;;;;15.24;55.26;100442.72;5040470;28;20037;-70
2021/08/16 05:35:28;;;;;;;7.25;1.65;;;;;;;15.35;54.75;100450.78;5057809;28;20075;-69
2021/08/16 05:37:55;;;;;;;7.15;1.63;;;;;;;15.58;54.61;100450.06;5034739;28;20028;-70
2021/08/16 05:40:21;;;;;;;9.73;1.83;;;;;;;15.36;54.72;100453.28;5060045;28;20056;-69
2021/08/16 05:42:46;;;;;;;5.65;1.52;;;;;;;15.58;54.61;100455.31;5045424;28;20063;-69
2021/08/16 05:45:13;;;;;;;3.22;1.38;;;;;;;15.82;54.34;100456.38;5041362;28;20047;-70
2021/08/16 05:47:38;;;;;;;6.38;1.38;;;;;;;15.64;53.94;100453.19;5043379;28;20401;-69
2021/08/16 05:50:05;;;;;;;6.13;1.50;;;;;;;15.05;55.53;100458.88;5045107;28;20115;-70
2021/08/16 05:52:31;;;;;;;9.35;1.48;;;;;;;15.41;54.81;100450.34;5043230;28;20068;-70
2021/08/16 05:54:56;;;;;;;6.25;1.55;;;;;;;14.94;55.71;100456.94;5041565;28;20068;-70
2021/08/16 05:57:22;;;;;;;3.10;1.13;;;;;;;15.01;56.21;100454.75;5044323;28;20037;-70
2021/08/16 05:59:47;;;;;;;6.93;1.85;;;;;;;14.49;57.45;100451.06;5038731;28;20036;-68
2021/08/16 06:02:13;;;;;;;4.97;2.15;;;;;;;15.23;55.67;100454.22;5038386;28;20033;-69
2021/08/16 06:04:39;;;;;;;4.65;1.85;;;;;;;15.37;55.20;100454.13;5038359;28;20039;-70
2021/08/16 06:07:04;;;;;;;9.52;2.03;;;;;;;15.41;54.91;100449.50;5051917;28;20055;-70
2021/08/16 06:09:30;;;;;;;5.07;1.50;;;;;;;15.64;54.58;100445.31;5036201;28;20025;-69
2021/08/16 06:11:55;;;;;;;5.82;1.50;;;;;;;15.69;54.00;100449.31;5044689;28;20047;-70
2021/08/16 06:14:21;;;;;;;8.68;1.33;;;;;;;15.54;53.80;100461.72;5031404;28;20032;-71
2021/08/16 06:16:46;;;;;;;5.32;2.17;;;;;;;15.57;54.31;100451.00;5054148;28;20087;-70
2021/08/16 06:19:12;;;;;;;5.32;1.88;;;;;;;15.67;54.05;100451.22;5039463;28;20045;-71
2021/08/16 06:21:42;;;;;;;5.95;1.48;;;;;;;14.90;54.76;100455.44;5050135;28;20039;-71
2021/08/16 06:24:10;;;;;;;5.88;1.35;;;;;;;15.32;54.42;100446.53;5040538;28;20029;-70
2021/08/16 06:26:36;;;;;;;5.65;1.00;;;;;;;15.66;53.33;100448.69;5039673;28;20058;-70
2021/08/16 06:29:01;;;;;;;6.57;1.45;;;;;;;15.48;53.98;100446.38;5060674;28;20101;-69
2021/08/16 06:31:27;;;;;;;2.78;0.98;;;;;;;15.36;54.18;100445.38;5061586;28;20029;-70
2021/08/16 06:33:52;;;;;;;3.33;1.10;;;;;;;15.67;54.09;100445.09;5051766;28;20041;-70
2021/08/16 06:36:19;;;;;;;8.30;1.95;;;;;;;15.80;53.56;100441.53;5038043;28;20563;-69
2021/08/16 06:38:47;;;;;;;5.97;1.60;;;;;;;15.17;55.11;100445.75;5050349;28;20109;-70
2021/08/16 06:41:17;;;;;;;5.90;1.15;;;;;;;15.54;54.12;100445.09;5036913;28;20045;-70
2021/08/16 06:43:44;;;;;;;3.40;0.90;;;;;;;15.61;54.07;100433.19;5036442;28;20032;-69
2021/08/16 06:46:10;;;;;;;3.55;1.23;;;;;;;15.62;53.98;100436.66;5050684;28;20076;-69
2021/08/16 06:48:35;;;;;;;6.03;0.80;;;;;;;15.22;54.86;100439.38;5054530;28;20045;-69
2021/08/16 06:51:01;;;;;;;7.35;1.30;;;;;;;15.83;53.74;100450.16;5050524;28;20041;-69
2021/08/16 06:53:26;;;;;;;10.38;1.80;;;;;;;15.73;53.37;100437.63;5042943;28;20426;-70
2021/08/16 06:55:53;;;;;;;9.52;1.15;;;;;;;17.56;49.85;100431.50;5041403;28;20168;-69
2021/08/16 06:58:19;;;;;;;6.82;1.20;;;;;;;18.95;46.08;100429.38;5053470;28;20055;-70
2021/08/16 07:00:45;;;;;;;1.92;0.70;;;;;;;17.88;47.47;100430.84;5050386;28;20494;-69
2021/08/16 07:03:11;;;;;;;6.32;1.10;;;;;;;17.22;49.31;100423.47;5036903;28;20033;-70
2021/08/16 07:05:43;;;;;;;4.45;0.80;;;;;;;15.97;52.12;100423.69;5050689;28;20530;-70
2021/08/16 07:08:10;;;;;;;3.15;1.17;;;;;;;15.59;53.13;100422.78;5040423;28;20029;-69
2021/08/16 07:10:36;;;;;;;7.43;1.27;;;;;;;15.15;54.21;100423.09;5050351;28;20043;-70
2021/08/16 07:13:01;;;;;;;2.05;0.80;;;;;;;15.14;54.51;100430.13;5055468;28;20116;-70
2021/08/16 07:15:29;;;;;;;2.85;0.65;;;;;;;15.73;52.60;100431.53;5038244;28;20053;-69
2021/08/16 07:17:55;;;;;;;7.38;1.15;;;;;;;14.65;56.23;100435.97;5035968;28;20115;-69
2021/08/16 07:20:20;;;;;;;5.13;1.08;;;;;;;14.60;56.83;100430.16;5050323;28;20121;-68
2021/08/16 07:22:46;;;;;;;7.10;1.63;;;;;;;14.49;57.59;100435.28;5040375;28;20256;-69
2021/08/16 07:25:11;;;;;;;3.45;1.80;;;;;;;14.42;58.05;100423.47;5045784;28;20086;-69
2021/08/16 07:27:37;;;;;;;4.22;1.10;;;;;;;14.14;58.66;100420.75;5043802;28;20033;-68
2021/08/16 07:30:03;;;;;;;3.85;1.73;;;;;;;14.68;57.36;100419.16;5039086;28;20036;-69
2021/08/16 07:32:28;;;;;;;3.75;1.40;;;;;;;14.80;56.99;100423.63;5058699;22;20425;-69
2021/08/16 07:34:53;;;;;;;5.63;1.75;;;;;;;14.49;57.98;100430.00;5020914;28;20042;-68
2021/08/16 07:37:19;;;;;;;4.32;1.30;;;;;;;14.83;57.72;100438.38;5042134;28;20108;-69
2021/08/16 07:39:44;;;;;;;2.55;1.40;;;;;;;14.68;56.57;100422.66;5023215;28;20041;-69
2021/08/16 07:42:10;;;;;;;2.40;1.00;;;;;;;14.44;56.98;100432.09;5022213;28;20066;-68
2021/08/16 07:44:36;;;;;;;8.25;1.33;;;;;;;14.91;56.68;100430.81;5025265;28;20052;-69
2021/08/16 07:47:03;;;;;;;2.55;1.15;;;;;;;15.45;55.71;100425.50;5042794;28;20053;-69
2021/08/16 07:49:31;;;;;;;2.47;1.02;;;;;;;14.64;57.25;100426.41;5025358;28;20044;-69
2021/08/16 07:51:58;;;;;;;3.65;1.33;;;;;;;15.33;55.62;100429.81;5042827;28;20070;-68
2021/08/16 07:54:23;;;;;;;4.25;1.00;;;;;;;14.24;58.20;100421.03;5027303;28;20039;-68
2021/08/16 07:56:50;;;;;;;5.55;1.08;;;;;;;14.21;58.46;100426.47;5019562;28;20025;-69
2021/08/16 07:59:18;;;;;;;3.95;1.35;;;;;;;14.48;57.64;100429.19;5047648;28;20129;-69
2021/08/16 08:01:45;;;;;;;5.10;2.00;;;;;;;14.68;56.92;100450.72;5011794;28;20057;-69
2021/08/16 08:04:11;;;;;;;4.82;1.17;;;;;;;14.71;57.15;100466.31;5029844;28;20519;-69
2021/08/16 08:06:36;;;;;;;6.45;2.00;;;;;;;14.68;57.36;100461.22;5015929;28;20030;-69
2021/08/16 08:09:02;;;;;;;5.45;1.45;;;;;;;14.74;57.46;100460.84;5047962;28;20046;-69
2021/08/16 08:11:28;;;;;;;2.50;1.20;;;;;;;14.60;57.43;100459.09;5029156;28;20572;-69
2021/08/16 08:13:53;;;;;;;1.42;0.40;;;;;;;14.60;57.02;100451.22;5016345;28;20125;-68
2021/08/16 08:16:19;;;;;;;5.75;0.50;;;;;;;14.74;56.59;100451.16;5014865;28;20045;-69
2021/08/16 08:18:44;;;;;;;2.50;0.98;;;;;;;14.06;58.14;100440.56;5028547;28;20032;-69
2021/08/16 08:21:10;;;;;;;1.10;0.35;;;;;;;14.22;57.63;100446.56;5009632;28;20122;-69
2021/08/16 08:23:36;;;;;;;1.35;0.55;;;;;;;14.95;55.80;100467.38;5039642;28;20088;-69
2021/08/16 08:26:02;;;;;;;3.03;0.63;;;;;;;14.65;55.36;100457.00;5030022;28;20394;-68
2021/08/16 08:28:27;;;;;;;1.15;0.25;;;;;;;14.96;54.89;100457.69;5041810;28;20040;-68
2021/08/16 08:30:53;;;;;;;14.55;0.40;;;;;;;14.25;56.08;100454.22;5024004;28;20124;-68
2021/08/16 08:33:18;;;;;;;3.60;0.57;;;;;;;14.38;55.39;100456.13;5023314;28;20037;-69
2021/08/16 08:35:48;;;;;;;2.25;0.70;;;;;;;14.55;55.40;100461.19;5028140;28;20061;-69
2021/08/16 08:38:14;;;;;;;1.48;0.30;;;;;;;14.28;55.79;100459.31;5024113;28;20120;-69
2021/08/16 08:40:41;;;;;;;1.80;0.50;;;;;;;14.50;55.81;100455.34;5043968;28;20458;-70
2021/08/16 08:43:11;;;;;;;4.47;0.30;;;;;;;14.38;55.91;100456.13;5029031;28;20534;-68
2021/08/16 08:45:39;;;;;;;7.05;0.60;;;;;;;14.99;54.71;100465.34;5034767;28;20025;-69
2021/08/16 08:48:05;;;;;;;2.75;0.22;;;;;;;15.34;54.11;100465.69;5043623;28;20410;-70
2021/08/16 08:50:31;;;;;;;3.30;0.25;;;;;;;15.21;54.74;100469.22;5008731;28;20056;-69
2021/08/16 08:52:58;;;;;;;3.22;1.02;;;;;;;15.07;54.70;100473.59;5025917;28;20024;-69
2021/08/16 08:55:24;;;;;;;4.05;0.95;;;;;;;14.90;55.36;100476.47;5028878;28;20044;-68
2021/08/16 08:57:50;;;;;;;0.50;0.17;;;;;;;15.58;54.03;100476.38;5040273;28;20037;-68
2021/08/16 09:00:16;;;;;;;4.72;0.45;;;;;;;16.69;51.04;100459.94;5026639;28;20045;-68
2021/08/16 09:03:03;;;;;;;1.75;0.30;;;;;;;17.35;48.69;100452.47;5046237;28;20026;-68
2021/08/16 09:05:29;;;;;;;5.00;0.52;;;;;;;17.02;49.40;100461.94;5028110;28;20040;-68
2021/08/16 09:07:58;;;;;;;1.00;0.38;;;;;;;17.73;49.38;100451.38;5028396;28;20483;-69
2021/08/16 09:10:27;;;;;;;1.60;0.40;;;;;;;18.39;48.20;100459.47;5024748;28;20386;-68
2021/08/16 09:13:00;;;;;;;5.10;0.43;;;;;;;18.25;46.61;100463.19;5013301;28;20426;-68
2021/08/16 09:15:31;;;;;;;5.68;0.50;;;;;;;19.08;47.07;100461.81;5007634;28;20036;-69
2021/08/16 09:18:02;;;;;;;4.10;0.73;;;;;;;19.26;44.41;100459.44;5049738;28;20040;-69
2021/08/16 09:20:32;;;;;;;6.20;0.55;;;;;;;19.25;44.60;100463.88;5047212;28;20120;-68
2021/08/16 09:23:01;;;;;;;1.65;0.68;;;;;;;18.94;44.61;100465.59;5041713;28;20057;-69
2021/08/16 09:25:30;;;;;;;5.18;1.50;;;;;;;19.13;42.85;100458.78;5031158;28;20036;-69
2021/08/16 09:27:57;;;;;;;1.63;0.47;;;;;;;19.62;42.92;100460.84;5046954;28;20051;-69
2021/08/16 09:30:40;;;;;;;6.05;0.77;;;;;;;20.00;40.12;100454.03;5010613;28;20044;-69
2021/08/16 09:33:15;;;;;;;6.18;0.77;;;;;;;19.83;42.08;100452.00;5027326;28;20797;-70
2021/08/16 09:35:53;;;;;;;5.53;0.75;;;;;;;18.11;41.77;100435.16;5029378;28;20580;-69
2021/08/16 09:38:31;;;;;;;7.53;1.00;;;;;;;17.74;44.30;100460.97;5021783;28;20132;-69
2021/08/16 09:40:56;;;;;;;5.78;0.85;;;;;;;17.23;46.49;100470.91;5029763;28;20033;-70
2021/08/16 09:43:26;;;;;;;3.05;0.75;;;;;;;16.37;46.77;100477.13;5015285;28;20513;-69
2021/08/16 09:45:52;;;;;;;4.22;0.85;;;;;;;15.87;48.15;100478.00;5040901;28;20387;-70
2021/08/16 09:48:23;;;;;;;4.72;0.88;;;;;;;15.93;48.29;100483.69;5051211;28;20041;-69
2021/08/16 09:50:50;;;;;;;3.10;0.60;;;;;;;15.93;47.50;100483.69;5030354;28;20592;-69
2021/08/16 09:53:19;;;;;;;4.25;0.75;;;;;;;15.49;48.64;100484.91;5044427;28;20039;-69
2021/08/16 09:55:50;;;;;;;1.42;0.40;;;;;;;15.64;48.12;100487.44;5026114;28;20098;-70
2021/08/16 09:58:17;;;;;;;2.92;1.00;;;;;;;15.77;47.60;100490.94;5023455;28;20073;-70
2021/08/16 10:00:45;;;;;;;3.95;0.77;;;;;;;15.27;47.08;100500.44;5024572;28;20043;-69
2021/08/16 10:03:13;;;;;;;5.80;0.93;;;;;;;15.80;47.48;100498.66;5025419;28;20029;-68
2021/08/16 10:05:41;;;;;;;4.72;1.00;;;;;;;16.10;46.92;100498.34;5039054;28;20041;-70
2021/08/16 10:08:11;;;;;;;9.10;0.50;;;;;;;16.14;46.67;100501.63;5041384;28;20041;-69
2021/08/16 10:10:39;;;;;;;6.15;1.20;;;;;;;16.24;46.29;100504.47;5042847;28;20424;-69
2021/08/16 10:13:06;;;;;;;4.47;0.70;;;;;;;16.17;47.21;100506.69;5027875;28;20064;-70
2021/08/16 10:15:41;;;;;;;9.27;0.70;;;;;;;15.94;47.22;100513.50;5024128;28;20032;-69
2021/08/16 10:18:11;;;;;;;5.93;0.50;;;;;;;16.55;46.53;100519.81;5013323;28;20044;-69
2021/08/16 10:20:38;;;;;;;8.18;0.85;;;;;;;16.74;46.31;100522.00;5028534;28;20083;-70
2021/08/16 10:23:18;;;;;;;6.40;0.73;;;;;;;17.16;45.07;100521.66;5033312;28;20052;-69
2021/08/16 10:25:46;;;;;;;6.85;0.70;;;;;;;16.61;45.58;100519.38;5041625;28;20104;-70
2021/08/16 10:28:23;;;;;;;3.10;0.28;;;;;;;16.52;45.76;100521.84;5033349;28;20533;-69
2021/08/16 10:30:49;;;;;;;5.35;0.52;;;;;;;16.38;46.33;100525.44;5024788;28;20041;-69
2021/08/16 10:33:14;;;;;;;5.47;0.70;;;;;;;16.33;45.70;100523.13;5045169;28;20633;-70
2021/08/16 10:35:41;;;;;;;9.77;0.88;;;;;;;16.50;46.22;100523.75;5041182;28;20036;-70
2021/08/16 10:38:09;;;;;;;4.68;0.70;;;;;;;16.29;45.98;100523.47;5033223;28;20045;-70
2021/08/16 10:40:52;;;;;;;3.85;0.47;;;;;;;16.15;45.93;100527.03;5009324;28;20067;-70
2021/08/16 10:43:19;;;;;;;5.88;0.20;;;;;;;16.40;45.12;100513.84;5049649;28;20043;-70
2021/08/16 10:45:49;;;;;;;3.70;0.82;;;;;;;16.47;44.99;100547.69;5029913;28;20036;-70
2021/08/16 10:48:34;;;;;;;3.10;0.20;;;;;;;15.16;49.96;100559.88;5021079;28;20037;-70
2021/08/16 10:51:08;;;;;;;2.95;0.28;;;;;;;14.70;51.70;100554.91;5029445;28;20100;-69
2021/08/16 10:53:54;;;;;;;1.58;0.45;;;;;;;15.40;50.47;100554.00;5031298;28;20036;-70
2021/08/16 10:56:22;;;;;;;5.63;0.47;;;;;;;15.65;49.69;100552.38;5029174;28;20033;-69
2021/08/16 10:58:48;;;;;;;4.18;0.30;;;;;;;16.00;48.74;100557.94;5010331;28;20040;-69
2021/08/16 11:01:27;;;;;;;4.93;0.43;;;;;;;15.84;47.80;100563.38;5018338;28;20033;-70
2021/08/16 11:03:57;;;;;;;5.22;0.85;;;;;;;16.23;47.81;100571.34;5032229;28;20036;-70
2021/08/16 11:06:23;;;;;;;8.20;0.73;;;;;;;15.67;47.51;100577.66;5024353;28;20025;-71
2021/08/16 11:09:04;;;;;;;6.45;0.38;;;;;;;15.48;46.98;100575.41;5042826;28;20049;-70
2021/08/16 11:11:32;;;;;;;3.03;0.50;;;;;;;15.91;46.17;100577.81;5027822;28;20052;-70
2021/08/16 11:14:06;;;;;;;8.55;0.85;;;;;;;16.17;45.92;100575.22;5033751;28;20125;-71
2021/08/16 11:16:31;;;;;;;2.45;0.50;;;;;;;16.42;44.89;100575.25;5046890;28;20044;-70
2021/08/16 11:18:57;;;;;;;5.72;0.70;;;;;;;16.31;44.74;100577.78;5046595;28;20391;-69
2021/08/16 11:21:23;;;;;;;8.60;0.63;;;;;;;16.31;43.80;100587.47;5030953;28;20021;-71